Time;durP1;ratioP1;P1;durP2;ratioP2;P2;SDS_P1;SDS_P2;PMS_P1;PMS_P2;Temp;Humidity;BMP_temperature;BMP_pressure;BME280_temperature;BME280_humidity;BME280_pressure;Samples;Min_cycle;Max_cycle;Signal;HPM_P1;HPM_P2
2021/09/25 00:00:34;;;;;;;8.98;7.70;;;;;;;;;;5037060;28;20530;-85
2021/09/25 00:03:02;;;;;;;11.43;8.10;;;;;;;;;;5048858;28;20033;-85
2021/09/25 00:05:29;;;;;;;13.00;8.63;;;;;;;;;;5045663;28;20033;-85
2021/09/25 00:07:55;;;;;;;17.60;8.77;;;;;;;;;;5036550;28;20108;-85
2021/09/25 00:10:20;;;;;;;14.43;8.52;;;;;;;;;;5018305;28;20061;-85
2021/09/25 00:12:46;;;;;;;12.05;8.40;;;;;;;;;;5018161;28;20030;-85
2021/09/25 00:15:12;;;;;;;15.25;9.52;;;;;;;;;;5018125;28;20028;-85
2021/09/25 00:17:38;;;;;;;18.98;9.63;;;;;;;;;;5035643;28;20021;-85
2021/09/25 00:20:04;;;;;;;13.73;9.38;;;;;;;;;;5017995;28;20024;-85
2021/09/25 00:22:30;;;;;;;12.15;8.75;;;;;;;;;;5018804;28;20017;-85
2021/09/25 00:24:55;;;;;;;12.55;8.45;;;;;;;;;;5017402;28;20496;-85
2021/09/25 00:27:20;;;;;;;13.65;8.70;;;;;;;;;;5036483;28;20026;-85
2021/09/25 00:29:46;;;;;;;12.40;8.75;;;;;;;;;;5017705;28;20021;-85
2021/09/25 00:32:11;;;;;;;14.15;9.02;;;;;;;;;;5034396;28;20025;-85
2021/09/25 00:34:36;;;;;;;13.02;9.48;;;;;;;;;;5017750;28;20084;-85
2021/09/25 00:37:02;;;;;;;20.02;9.30;;;;;;;;;;5017649;28;20025;-85
2021/09/25 00:39:27;;;;;;;14.45;8.98;;;;;;;;;;5040214;28;20021;-85
2021/09/25 00:41:52;;;;;;;12.43;9.27;;;;;;;;;;5035906;28;20021;-85
2021/09/25 00:44:19;;;;;;;14.40;9.48;;;;;;;;;;5035615;28;20028;-85
2021/09/25 00:46:44;;;;;;;13.52;9.00;;;;;;;;;;5017573;28;20075;-85
2021/09/25 00:49:16;;;;;;;13.43;9.75;;;;;;;;;;5046296;28;20085;-85
2021/09/25 00:51:42;;;;;;;15.00;9.35;;;;;;;;;;5040986;28;20017;-85
2021/09/25 00:54:07;;;;;;;16.90;10.77;;;;;;;;;;5017236;28;20041;-85
2021/09/25 00:56:32;;;;;;;19.02;9.70;;;;;;;;;;5035671;28;20108;-85
2021/09/25 00:58:58;;;;;;;13.60;8.68;;;;;;;;;;5032566;28;20033;-85
2021/09/25 01:01:23;;;;;;;18.48;9.95;;;;;;;;;;5017053;28;20025;-86
2021/09/25 01:03:49;;;;;;;13.90;8.93;;;;;;;;;;5035471;28;20100;-85
2021/09/25 01:06:14;;;;;;;11.40;8.85;;;;;;;;;;5035157;28;20029;-86
2021/09/25 01:08:39;;;;;;;13.23;9.40;;;;;;;;;;5031311;28;20064;-85
2021/09/25 01:11:05;;;;;;;17.85;10.13;;;;;;;;;;5044682;28;20087;-86
2021/09/25 01:13:30;;;;;;;15.25;9.50;;;;;;;;;;5034464;28;20044;-86
2021/09/25 01:15:55;;;;;;;16.55;9.93;;;;;;;;;;5020883;28;20052;-86
2021/09/25 01:18:21;;;;;;;14.00;9.63;;;;;;;;;;5021792;28;20115;-85
2021/09/25 01:20:46;;;;;;;15.95;9.15;;;;;;;;;;5036073;28;20106;-85
2021/09/25 01:23:12;;;;;;;17.60;9.93;;;;;;;;;;5038009;28;20021;-85
2021/09/25 01:25:37;;;;;;;19.35;9.65;;;;;;;;;;5018334;28;20107;-86
2021/09/25 01:28:03;;;;;;;16.65;8.88;;;;;;;;;;5017469;28;20081;-85
2021/09/25 01:30:29;;;;;;;14.15;9.23;;;;;;;;;;5014471;28;20103;-85
2021/09/25 01:32:54;;;;;;;15.63;9.60;;;;;;;;;;5015876;28;20026;-86
2021/09/25 01:35:22;;;;;;;14.68;8.98;;;;;;;;;;5035457;28;20076;-85
2021/09/25 01:37:50;;;;;;;13.60;9.07;;;;;;;;;;5018022;28;20369;-86
2021/09/25 01:40:17;;;;;;;16.50;9.30;;;;;;;;;;5032157;28;20038;-85
2021/09/25 01:42:43;;;;;;;16.70;9.02;;;;;;;;;;5030092;28;20104;-85
2021/09/25 01:45:10;;;;;;;12.73;8.90;;;;;;;;;;5033708;28;20032;-85
2021/09/25 01:47:36;;;;;;;14.57;8.70;;;;;;;;;;5033999;28;20102;-85
2021/09/25 01:50:04;;;;;;;12.52;8.60;;;;;;;;;;5034431;28;20021;-85
2021/09/25 01:52:30;;;;;;;18.13;9.77;;;;;;;;;;5033934;28;20025;-85
2021/09/25 01:54:55;;;;;;;17.58;9.82;;;;;;;;;;5033967;28;20040;-85
2021/09/25 01:57:21;;;;;;;15.60;9.43;;;;;;;;;;5034271;28;20022;-85
2021/09/25 01:59:46;;;;;;;15.80;9.38;;;;;;;;;;5029519;28;20033;-85
2021/09/25 02:02:12;;;;;;;14.63;8.63;;;;;;;;;;5034559;28;20034;-85
2021/09/25 02:04:37;;;;;;;12.73;8.95;;;;;;;;;;5016632;28;20112;-85
2021/09/25 02:07:04;;;;;;;15.07;9.15;;;;;;;;;;5014814;28;20073;-85
2021/09/25 02:09:29;;;;;;;16.92;9.65;;;;;;;;;;5033835;28;20029;-85
2021/09/25 02:11:54;;;;;;;19.40;8.73;;;;;;;;;;5016399;28;20033;-85
2021/09/25 02:14:20;;;;;;;14.80;8.85;;;;;;;;;;5012670;28;20035;-85
2021/09/25 02:16:45;;;;;;;13.48;8.50;;;;;;;;;;5030445;28;20030;-85
2021/09/25 02:19:10;;;;;;;16.48;8.75;;;;;;;;;;5031832;28;20095;-85
2021/09/25 02:21:37;;;;;;;13.98;8.50;;;;;;;;;;5016921;28;20025;-86
2021/09/25 02:24:02;;;;;;;17.40;8.32;;;;;;;;;;5015312;28;20022;-85
2021/09/25 02:26:27;;;;;;;15.25;8.45;;;;;;;;;;5019631;28;20036;-85
2021/09/25 02:28:53;;;;;;;17.17;9.05;;;;;;;;;;5040312;28;20025;-85
2021/09/25 02:31:20;;;;;;;15.95;8.52;;;;;;;;;;5034701;28;20029;-85
2021/09/25 02:33:46;;;;;;;17.42;8.95;;;;;;;;;;5033742;28;20021;-85
2021/09/25 02:36:12;;;;;;;13.73;8.95;;;;;;;;;;5034297;28;20029;-84
2021/09/25 02:38:37;;;;;;;15.35;8.45;;;;;;;;;;5033829;28;20081;-85
2021/09/25 02:41:02;;;;;;;14.70;8.88;;;;;;;;;;5033657;28;20029;-85
2021/09/25 02:43:28;;;;;;;18.75;9.15;;;;;;;;;;5033331;28;20021;-85
2021/09/25 02:45:53;;;;;;;14.25;8.50;;;;;;;;;;5029209;28;20021;-85
2021/09/25 02:48:18;;;;;;;17.33;8.23;;;;;;;;;;5033364;28;20428;-85
2021/09/25 02:50:44;;;;;;;20.30;9.13;;;;;;;;;;5013153;28;20025;-85
2021/09/25 02:53:09;;;;;;;13.45;8.27;;;;;;;;;;5030972;28;20017;-85
2021/09/25 02:55:35;;;;;;;14.93;8.43;;;;;;;;;;5039817;28;20032;-85
2021/09/25 02:58:00;;;;;;;14.77;8.25;;;;;;;;;;5030619;28;20053;-85
2021/09/25 03:00:25;;;;;;;11.90;8.27;;;;;;;;;;5018597;28;20030;-85
2021/09/25 03:02:51;;;;;;;15.60;8.40;;;;;;;;;;5000087;28;20112;-85
2021/09/25 03:05:16;;;;;;;12.98;8.32;;;;;;;;;;5017760;28;20080;-85
2021/09/25 03:07:42;;;;;;;17.77;8.88;;;;;;;;;;5016253;28;20371;-85
2021/09/25 03:10:08;;;;;;;14.07;8.88;;;;;;;;;;5017934;28;20061;-85
2021/09/25 03:12:34;;;;;;;14.38;8.55;;;;;;;;;;5018245;28;20033;-86
2021/09/25 03:15:01;;;;;;;14.10;8.98;;;;;;;;;;5029903;28;20096;-85
2021/09/25 03:17:26;;;;;;;16.70;9.00;;;;;;;;;;5017430;28;20112;-85
2021/09/25 03:19:51;;;;;;;15.30;9.25;;;;;;;;;;5037469;28;20400;-86
2021/09/25 03:22:17;;;;;;;16.90;9.13;;;;;;;;;;5022492;28;20029;-85
2021/09/25 03:24:44;;;;;;;21.25;9.20;;;;;;;;;;5018669;28;20032;-85
2021/09/25 03:27:09;;;;;;;15.68;9.00;;;;;;;;;;5035568;28;20389;-85
2021/09/25 03:29:35;;;;;;;19.17;9.35;;;;;;;;;;5036851;28;20029;-85
2021/09/25 03:32:00;;;;;;;16.50;8.88;;;;;;;;;;5019424;28;20033;-85
2021/09/25 03:34:25;;;;;;;17.63;8.90;;;;;;;;;;5032275;28;20038;-85
2021/09/25 03:36:51;;;;;;;15.77;9.23;;;;;;;;;;5019900;28;20504;-85
2021/09/25 03:39:16;;;;;;;16.70;9.38;;;;;;;;;;5018967;28;20026;-85
2021/09/25 03:41:43;;;;;;;18.75;9.90;;;;;;;;;;5026085;28;20030;-85
2021/09/25 03:44:08;;;;;;;19.13;9.77;;;;;;;;;;5019070;28;20101;-85
2021/09/25 03:46:34;;;;;;;20.95;9.68;;;;;;;;;;5017273;28;20053;-85
2021/09/25 03:48:59;;;;;;;15.98;8.98;;;;;;;;;;5032364;28;20022;-85
2021/09/25 03:51:33;;;;;;;19.08;9.77;;;;;;;;;;5032327;28;20025;-87
2021/09/25 03:53:59;;;;;;;16.15;10.05;;;;;;;;;;5006007;28;20026;-86
2021/09/25 03:56:25;;;;;;;18.48;9.45;;;;;;;;;;5036208;28;20443;-86
2021/09/25 03:58:50;;;;;;;19.10;8.95;;;;;;;;;;5033704;28;20014;-86
2021/09/25 04:01:17;;;;;;;17.23;9.23;;;;;;;;;;5036789;28;20116;-86
2021/09/25 04:03:43;;;;;;;18.02;9.77;;;;;;;;;;5032280;28;20029;-86
2021/09/25 04:06:08;;;;;;;19.55;9.68;;;;;;;;;;5036025;28;20098;-86
2021/09/25 04:08:34;;;;;;;17.42;9.15;;;;;;;;;;5018955;28;20109;-86
2021/09/25 04:11:00;;;;;;;18.52;8.82;;;;;;;;;;5032927;28;20037;-85
2021/09/25 04:13:25;;;;;;;21.73;9.32;;;;;;;;;;5014233;28;20392;-85
2021/09/25 04:15:50;;;;;;;15.48;8.88;;;;;;;;;;5018047;28;20023;-86
2021/09/25 04:18:16;;;;;;;15.32;8.43;;;;;;;;;;5035789;28;20115;-85
2021/09/25 04:20:41;;;;;;;17.17;9.38;;;;;;;;;;5035575;28;20021;-85
2021/09/25 04:23:07;;;;;;;16.90;9.02;;;;;;;;;;5032723;28;20087;-85
2021/09/25 04:25:32;;;;;;;15.35;9.25;;;;;;;;;;5018006;28;20452;-86
2021/09/25 04:28:05;;;;;;;15.32;8.68;;;;;;;;;;5031978;28;20032;-86
2021/09/25 04:30:39;;;;;;;18.02;8.90;;;;;;;;;;4998269;28;20026;-85
2021/09/25 04:33:07;;;;;;;15.73;8.13;;;;;;;;;;5015858;28;20029;-86
2021/09/25 04:35:32;;;;;;;20.13;9.43;;;;;;;;;;4998101;28;20029;-85
2021/09/25 04:37:59;;;;;;;16.80;8.60;;;;;;;;;;4998298;28;20469;-85
2021/09/25 04:40:25;;;;;;;18.25;8.48;;;;;;;;;;5018381;28;20026;-85
2021/09/25 04:42:51;;;;;;;17.27;9.50;;;;;;;;;;5026240;28;20029;-85
2021/09/25 04:45:16;;;;;;;17.73;9.10;;;;;;;;;;5036272;28;20067;-85
2021/09/25 04:47:43;;;;;;;15.25;8.55;;;;;;;;;;5036035;28;20033;-85
2021/09/25 04:50:10;;;;;;;15.32;8.60;;;;;;;;;;5030061;28;20036;-85
2021/09/25 04:52:36;;;;;;;13.02;7.75;;;;;;;;;;5035985;28;20069;-85
2021/09/25 04:55:02;;;;;;;16.25;8.90;;;;;;;;;;5035146;28;20075;-85
2021/09/25 04:57:27;;;;;;;35.58;8.98;;;;;;;;;;5031119;28;20029;-85
2021/09/25 04:59:52;;;;;;;16.23;8.73;;;;;;;;;;5017199;28;20031;-85
2021/09/25 05:02:18;;;;;;;14.52;8.13;;;;;;;;;;5035181;28;20048;-85
2021/09/25 05:04:43;;;;;;;17.38;8.73;;;;;;;;;;5011891;28;20032;-85
2021/09/25 05:07:08;;;;;;;14.55;8.82;;;;;;;;;;5034720;28;20025;-85
2021/09/25 05:09:34;;;;;;;17.67;8.73;;;;;;;;;;5031544;28;20063;-85
2021/09/25 05:11:59;;;;;;;19.17;8.45;;;;;;;;;;5016778;28;20032;-85
2021/09/25 05:14:24;;;;;;;16.48;8.60;;;;;;;;;;5034941;28;20037;-85
2021/09/25 05:16:50;;;;;;;18.00;8.15;;;;;;;;;;5015288;28;20075;-85
2021/09/25 05:19:15;;;;;;;16.60;8.52;;;;;;;;;;5035341;28;20100;-85
2021/09/25 05:21:40;;;;;;;16.73;8.68;;;;;;;;;;5014700;28;20034;-85
2021/09/25 05:24:07;;;;;;;16.00;8.30;;;;;;;;;;5035306;28;20040;-85
2021/09/25 05:26:33;;;;;;;18.52;8.82;;;;;;;;;;5018340;28;20084;-85
2021/09/25 05:28:58;;;;;;;17.20;8.88;;;;;;;;;;5034598;28;20106;-85
2021/09/25 05:31:23;;;;;;;15.25;9.00;;;;;;;;;;5030766;28;20029;-85
2021/09/25 05:33:49;;;;;;;21.90;9.70;;;;;;;;;;5034535;28;20492;-85
2021/09/25 05:36:14;;;;;;;18.58;8.48;;;;;;;;;;5016656;28;20076;-85
2021/09/25 05:38:39;;;;;;;14.38;9.35;;;;;;;;;;5030829;28;20029;-85
2021/09/25 05:41:05;;;;;;;15.45;8.93;;;;;;;;;;5034724;28;20021;-85
2021/09/25 05:43:30;;;;;;;17.17;8.82;;;;;;;;;;5011233;28;20053;-85
2021/09/25 05:45:55;;;;;;;15.52;8.57;;;;;;;;;;5034649;28;20582;-85
2021/09/25 05:48:21;;;;;;;16.08;9.20;;;;;;;;;;5025697;28;20044;-85
2021/09/25 05:50:46;;;;;;;22.52;9.82;;;;;;;;;;5025347;28;20022;-85
2021/09/25 05:53:11;;;;;;;18.65;9.32;;;;;;;;;;5019419;28;20032;-85
2021/09/25 05:55:37;;;;;;;18.10;9.57;;;;;;;;;;5013417;28;20083;-85
2021/09/25 05:58:03;;;;;;;18.63;9.13;;;;;;;;;;5018189;28;20088;-85
2021/09/25 06:00:29;;;;;;;18.13;9.00;;;;;;;;;;5037873;28;20049;-85
2021/09/25 06:02:54;;;;;;;17.38;9.77;;;;;;;;;;5036867;28;20029;-85
2021/09/25 06:05:20;;;;;;;19.83;10.43;;;;;;;;;;5033289;28;20029;-85
2021/09/25 06:07:45;;;;;;;15.35;8.98;;;;;;;;;;5035348;28;20030;-85
2021/09/25 06:10:11;;;;;;;24.08;9.25;;;;;;;;;;5016155;28;20028;-86
2021/09/25 06:12:36;;;;;;;16.58;9.57;;;;;;;;;;5016947;28;20033;-86
2021/09/25 06:15:02;;;;;;;15.15;8.80;;;;;;;;;;5015198;28;20029;-86
2021/09/25 06:17:28;;;;;;;13.90;8.80;;;;;;;;;;5035526;28;20022;-86
2021/09/25 06:19:54;;;;;;;16.30;9.65;;;;;;;;;;5032067;28;20029;-85
2021/09/25 06:22:19;;;;;;;20.60;9.65;;;;;;;;;;5035139;28;20025;-85
2021/09/25 06:24:44;;;;;;;19.55;9.88;;;;;;;;;;5014713;28;20216;-85
2021/09/25 06:27:10;;;;;;;15.75;9.48;;;;;;;;;;5017237;28;20088;-84
2021/09/25 06:29:35;;;;;;;14.60;9.35;;;;;;;;;;5039278;28;20048;-84
2021/09/25 06:32:01;;;;;;;17.58;8.95;;;;;;;;;;5022490;28;20057;-85
2021/09/25 06:34:26;;;;;;;18.65;10.07;;;;;;;;;;5039208;28;20036;-85
2021/09/25 06:36:52;;;;;;;16.15;8.77;;;;;;;;;;5022073;28;20508;-85
2021/09/25 06:39:17;;;;;;;17.33;9.27;;;;;;;;;;5021740;28;20029;-84
2021/09/25 06:41:43;;;;;;;20.80;8.98;;;;;;;;;;5026802;28;20516;-85
2021/09/25 06:44:08;;;;;;;18.23;9.20;;;;;;;;;;5018924;28;20034;-85
2021/09/25 06:46:34;;;;;;;15.73;8.65;;;;;;;;;;5001387;28;20464;-85
2021/09/25 06:48:59;;;;;;;16.52;9.98;;;;;;;;;;5000822;28;20018;-85
2021/09/25 06:51:25;;;;;;;17.50;9.30;;;;;;;;;;5033058;28;20032;-85
2021/09/25 06:53:50;;;;;;;14.63;7.95;;;;;;;;;;5037915;28;20049;-85
2021/09/25 06:56:15;;;;;;;14.05;8.70;;;;;;;;;;5038251;28;20042;-85
2021/09/25 06:58:41;;;;;;;16.67;9.02;;;;;;;;;;5020026;28;20017;-85
2021/09/25 07:01:06;;;;;;;20.40;8.85;;;;;;;;;;5018491;28;20029;-85
2021/09/25 07:03:32;;;;;;;19.42;9.70;;;;;;;;;;5018789;28;20030;-85
2021/09/25 07:05:57;;;;;;;17.02;9.35;;;;;;;;;;5033976;28;20116;-85
2021/09/25 07:08:22;;;;;;;18.80;9.23;;;;;;;;;;5037657;28;20436;-85
2021/09/25 07:10:50;;;;;;;18.77;8.93;;;;;;;;;;5034945;28;20108;-85
2021/09/25 07:13:16;;;;;;;17.00;8.90;;;;;;;;;;5021198;28;20025;-85
2021/09/25 07:15:42;;;;;;;17.45;8.52;;;;;;;;;;5034153;28;20068;-86
2021/09/25 07:18:07;;;;;;;19.15;9.23;;;;;;;;;;5038573;28;20022;-85
2021/09/25 07:20:33;;;;;;;14.75;9.00;;;;;;;;;;5033955;28;20017;-85
2021/09/25 07:22:58;;;;;;;18.60;8.77;;;;;;;;;;5013390;28;20035;-86
2021/09/25 07:25:24;;;;;;;19.65;9.43;;;;;;;;;;5021329;28;20040;-85
2021/09/25 07:27:50;;;;;;;15.95;8.60;;;;;;;;;;5036547;28;20084;-85
2021/09/25 07:30:17;;;;;;;15.32;8.65;;;;;;;;;;5020234;28;20027;-85
2021/09/25 07:32:43;;;;;;;17.85;8.90;;;;;;;;;;5033832;28;20032;-85
2021/09/25 07:35:11;;;;;;;17.45;8.95;;;;;;;;;;5037705;28;20021;-85
2021/09/25 07:37:37;;;;;;;21.15;9.05;;;;;;;;;;5038017;28;20021;-85
2021/09/25 07:40:04;;;;;;;21.25;8.80;;;;;;;;;;5038342;28;20022;-85
2021/09/25 07:42:30;;;;;;;14.77;8.95;;;;;;;;;;5019262;28;20436;-85
2021/09/25 07:44:56;;;;;;;16.60;9.30;;;;;;;;;;5037787;28;20029;-85
2021/09/25 07:47:21;;;;;;;18.35;8.82;;;;;;;;;;5037367;28;20061;-84
2021/09/25 07:49:47;;;;;;;18.17;8.70;;;;;;;;;;5035321;28;20075;-85
2021/09/25 07:52:12;;;;;;;17.83;9.23;;;;;;;;;;5035665;28;20021;-85
2021/09/25 07:54:37;;;;;;;20.63;9.23;;;;;;;;;;5036414;28;20029;-85
2021/09/25 07:57:03;;;;;;;15.98;8.50;;;;;;;;;;5032152;28;20029;-84
2021/09/25 07:59:28;;;;;;;16.35;9.25;;;;;;;;;;5026601;28;20037;-85
2021/09/25 08:01:54;;;;;;;15.70;9.07;;;;;;;;;;5035855;28;20029;-84
2021/09/25 08:04:19;;;;;;;15.93;8.23;;;;;;;;;;5034314;28;20022;-86
2021/09/25 08:06:44;;;;;;;19.40;9.82;;;;;;;;;;5024264;28;20052;-85
2021/09/25 08:09:10;;;;;;;23.65;9.38;;;;;;;;;;5020169;28;20037;-86
2021/09/25 08:11:35;;;;;;;20.88;9.38;;;;;;;;;;5018307;28;20037;-85
2021/09/25 08:14:01;;;;;;;20.48;9.38;;;;;;;;;;5036690;28;20021;-86
2021/09/25 08:16:27;;;;;;;17.63;8.88;;;;;;;;;;5037484;28;20060;-87
2021/09/25 08:18:53;;;;;;;18.10;9.60;;;;;;;;;;5019114;28;20021;-87
2021/09/25 08:21:20;;;;;;;18.80;9.15;;;;;;;;;;5018631;28;20440;-87
2021/09/25 08:23:46;;;;;;;20.65;9.00;;;;;;;;;;5016291;28;20025;-85
2021/09/25 08:26:11;;;;;;;18.63;9.20;;;;;;;;;;5038482;28;20098;-86
2021/09/25 08:28:36;;;;;;;14.82;8.70;;;;;;;;;;5038122;28;20057;-86
2021/09/25 08:31:02;;;;;;;18.35;9.30;;;;;;;;;;5035806;28;20030;-85
2021/09/25 08:33:27;;;;;;;20.77;9.68;;;;;;;;;;5032004;28;20025;-85
2021/09/25 08:35:52;;;;;;;18.92;9.05;;;;;;;;;;5036033;28;20025;-86
2021/09/25 08:38:18;;;;;;;14.43;9.10;;;;;;;;;;5036236;28;20021;-85
2021/09/25 08:40:43;;;;;;;18.52;9.07;;;;;;;;;;5050369;28;20531;-85
2021/09/25 08:43:09;;;;;;;17.63;9.40;;;;;;;;;;5040689;28;20079;-85
2021/09/25 08:45:35;;;;;;;16.55;9.85;;;;;;;;;;5041871;28;20032;-85
2021/09/25 08:48:00;;;;;;;17.88;9.98;;;;;;;;;;5037130;28;20027;-84
2021/09/25 08:50:26;;;;;;;19.52;9.23;;;;;;;;;;5035572;28;20032;-85
2021/09/25 08:52:52;;;;;;;19.77;9.38;;;;;;;;;;5031187;28;20443;-85
2021/09/25 08:55:17;;;;;;;17.10;9.50;;;;;;;;;;5036186;28;20025;-85
2021/09/25 08:57:43;;;;;;;17.02;9.25;;;;;;;;;;5035532;28;20028;-85
2021/09/25 09:00:37;;;;;;;15.50;9.15;;;;;;;;;;5035677;28;20425;-85
2021/09/25 09:03:31;;;;;;;22.48;9.57;;;;;;;;;;5035396;28;20112;-86
2021/09/25 09:06:24;;;;;;;18.38;9.60;;;;;;;;;;5029164;28;20036;-83
2021/09/25 09:08:52;;;;;;;18.05;9.02;;;;;;;;;;5029758;28;20041;-85
2021/09/25 09:11:20;;;;;;;15.93;9.43;;;;;;;;;;5034516;28;20057;-85
2021/09/25 09:13:51;;;;;;;25.92;10.23;;;;;;;;;;5018142;28;20512;-85
2021/09/25 09:16:17;;;;;;;24.48;9.75;;;;;;;;;;5015822;28;20148;-85
2021/09/25 09:18:44;;;;;;;21.27;9.85;;;;;;;;;;5021978;28;20037;-85
2021/09/25 09:21:13;;;;;;;15.43;9.35;;;;;;;;;;5017798;28;20036;-85
2021/09/25 09:23:48;;;;;;;18.13;8.95;;;;;;;;;;5014725;28;20083;-85
2021/09/25 09:26:17;;;;;;;19.13;10.75;;;;;;;;;;5015762;28;20028;-85
2021/09/25 09:28:44;;;;;;;21.00;9.98;;;;;;;;;;5017513;28;20048;-85
2021/09/25 09:31:11;;;;;;;19.27;9.57;;;;;;;;;;5035068;28;20052;-84
2021/09/25 09:33:51;;;;;;;18.10;9.50;;;;;;;;;;5017291;28;20037;-84
2021/09/25 09:36:37;;;;;;;16.50;9.45;;;;;;;;;;5031306;28;20029;-85
2021/09/25 09:39:17;;;;;;;16.60;10.20;;;;;;;;;;5033719;28;20178;-84
2021/09/25 09:41:44;;;;;;;19.58;9.73;;;;;;;;;;5025957;28;20095;-85
2021/09/25 09:44:12;;;;;;;16.23;10.70;;;;;;;;;;5031423;28;20025;-85
2021/09/25 09:46:44;;;;;;;17.50;9.40;;;;;;;;;;5034626;28;20083;-85
2021/09/25 09:49:17;;;;;;;19.67;9.90;;;;;;;;;;5030190;28;20043;-85
2021/09/25 09:51:48;;;;;;;18.80;9.45;;;;;;;;;;5032612;28;20377;-84
2021/09/25 09:54:29;;;;;;;13.63;8.65;;;;;;;;;;5033040;28;20025;-85
2021/09/25 09:56:57;;;;;;;20.40;9.77;;;;;;;;;;5016068;28;20056;-85
2021/09/25 09:59:23;;;;;;;17.17;9.30;;;;;;;;;;5034373;28;20044;-86
2021/09/25 10:01:49;;;;;;;21.00;10.00;;;;;;;;;;5031834;28;20034;-85
2021/09/25 10:04:16;;;;;;;21.95;10.00;;;;;;;;;;5016239;28;20053;-85
2021/09/25 10:06:42;;;;;;;19.85;8.70;;;;;;;;;;5034481;28;20083;-85
2021/09/25 10:09:14;;;;;;;15.95;8.30;;;;;;;;;;5034583;28;20020;-85
2021/09/25 10:11:43;;;;;;;16.42;9.15;;;;;;;;;;5034171;28;20492;-85
2021/09/25 10:14:09;;;;;;;17.83;9.25;;;;;;;;;;5016188;28;20029;-85
2021/09/25 10:16:36;;;;;;;17.13;8.48;;;;;;;;;;5030830;28;20030;-86
2021/09/25 10:19:04;;;;;;;12.65;8.60;;;;;;;;;;5017209;28;20026;-82
2021/09/25 10:21:34;;;;;;;18.05;8.77;;;;;;;;;;5032266;28;20040;-84
2021/09/25 10:24:07;;;;;;;18.23;9.35;;;;;;;;;;5047758;28;20009;-86
2021/09/25 10:26:34;;;;;;;15.25;9.77;;;;;;;;;;5058638;28;20064;-85
2021/09/25 10:29:05;;;;;;;17.05;9.38;;;;;;;;;;5058691;28;20016;-85
2021/09/25 10:31:31;;;;;;;18.95;9.75;;;;;;;;;;5048062;28;20100;-86
2021/09/25 10:34:14;;;;;;;17.48;9.32;;;;;;;;;;5042041;28;20336;-86
2021/09/25 10:36:52;;;;;;;15.43;10.02;;;;;;;;;;5041449;28;20049;-86
2021/09/25 10:39:33;;;;;;;16.50;9.63;;;;;;;;;;5022656;28;20444;-86
2021/09/25 10:42:09;;;;;;;19.25;10.00;;;;;;;;;;5037352;28;20026;-87
2021/09/25 10:44:48;;;;;;;19.33;9.52;;;;;;;;;;5023459;28;20029;-87
2021/09/25 10:47:17;;;;;;;18.10;8.88;;;;;;;;;;5036604;28;20025;-87
2021/09/25 10:49:55;;;;;;;29.98;13.40;;;;;;;;;;5039437;28;20040;-87
2021/09/25 10:52:24;;;;;;;14.85;9.35;;;;;;;;;;5000267;28;20026;-86
2021/09/25 10:55:17;;;;;;;16.50;9.55;;;;;;;;;;5022617;28;20051;-87
2021/09/25 10:57:42;;;;;;;;;;;;;;;;;;5037873;28;20025;-85
2021/09/25 11:00:21;;;;;;;20.85;10.57;;;;;;;;;;5035547;28;19964;-87
2021/09/25 11:02:47;;;;;;;16.10;10.85;;;;;;;;;;5039047;28;20029;-87
2021/09/25 11:05:56;;;;;;;21.20;10.65;;;;;;;;;;5039678;28;20026;-86
2021/09/25 11:08:30;;;;;;;19.92;10.57;;;;;;;;;;5038053;28;20098;-86
2021/09/25 11:11:07;;;;;;;21.83;11.35;;;;;;;;;;5020053;28;20044;-86
2021/09/25 11:14:00;;;;;;;20.20;10.13;;;;;;;;;;5036371;28;20057;-87
2021/09/25 11:16:50;;;;;;;17.40;10.10;;;;;;;;;;5037709;28;20029;-87
2021/09/25 11:19:21;;;;;;;18.50;10.02;;;;;;;;;;5040008;28;20147;-86
2021/09/25 11:22:08;;;;;;;19.13;10.25;;;;;;;;;;5045553;28;20025;-87
2021/09/25 11:24:53;;;;;;;19.77;10.23;;;;;;;;;;5036303;28;20017;-87
2021/09/25 11:27:32;;;;;;;21.80;10.82;;;;;;;;;;5022801;28;20030;-87
2021/09/25 11:30:12;;;;;;;19.58;10.32;;;;;;;;;;5036229;28;20112;-88
2021/09/25 11:32:51;;;;;;;19.73;11.35;;;;;;;;;;5046867;28;20033;-86
2021/09/25 11:35:19;;;;;;;19.33;10.93;;;;;;;;;;5042132;28;20060;-87
2021/09/25 11:38:07;;;;;;;21.30;11.10;;;;;;;;;;5038986;28;20369;-86
2021/09/25 11:40:41;;;;;;;19.35;11.93;;;;;;;;;;5041234;28;20026;-88
2021/09/25 11:43:10;;;;;;;22.08;11.93;;;;;;;;;;5038495;28;20029;-87
2021/09/25 11:45:42;;;;;;;20.65;11.35;;;;;;;;;;5038037;28;20084;-87
2021/09/25 11:48:09;;;;;;;;;;;;;;;;;;5051664;28;20018;-87
2021/09/25 11:50:39;;;;;;;24.17;11.40;;;;;;;;;;5029743;28;20373;-87
2021/09/25 11:53:07;;;;;;;21.88;10.02;;;;;;;;;;5021565;28;20026;-88
2021/09/25 11:55:36;;;;;;;24.83;11.48;;;;;;;;;;5033809;28;20035;-87
2021/09/25 11:58:07;;;;;;;22.58;12.13;;;;;;;;;;5049453;28;20026;-87
2021/09/25 12:00:51;;;;;;;22.30;11.40;;;;;;;;;;5040649;28;20503;-88
2021/09/25 12:03:18;;;;;;;15.40;9.25;;;;;;;;;;5021942;28;20025;-86
2021/09/25 12:05:49;;;;;;;20.33;10.07;;;;;;;;;;5041929;28;20086;-87
2021/09/25 12:08:23;;;;;;;13.70;9.00;;;;;;;;;;5029469;28;20035;-87
2021/09/25 12:10:59;;;;;;;17.02;9.50;;;;;;;;;;5038955;28;20036;-86
2021/09/25 12:13:28;;;;;;;18.00;8.80;;;;;;;;;;5040915;28;20029;-87
2021/09/25 12:16:00;;;;;;;18.35;8.48;;;;;;;;;;5037647;28;20029;-86
2021/09/25 12:18:26;;;;;;;20.88;9.48;;;;;;;;;;5039245;28;20017;-87
2021/09/25 12:21:00;;;;;;;17.85;8.93;;;;;;;;;;5036029;28;20021;-87
2021/09/25 12:23:58;;;;;;;18.77;7.65;;;;;;;;;;5034086;28;20396;-86
2021/09/25 12:26:26;;;;;;;16.35;7.72;;;;;;;;;;5028242;28;20037;-86
2021/09/25 12:29:00;;;;;;;20.63;7.90;;;;;;;;;;5038004;28;20025;-88
2021/09/25 12:31:35;;;;;;;15.38;7.63;;;;;;;;;;5040529;28;20084;-87
2021/09/25 12:34:05;;;;;;;19.67;8.32;;;;;;;;;;5038791;28;20467;-87
2021/09/25 12:36:37;;;;;;;20.42;8.50;;;;;;;;;;5022836;28;20036;-87
2021/09/25 12:39:07;;;;;;;16.95;8.13;;;;;;;;;;5026542;28;20040;-87
2021/09/25 12:41:34;;;;;;;17.33;8.10;;;;;;;;;;5042563;28;20081;-86
2021/09/25 12:44:03;;;;;;;19.52;8.13;;;;;;;;;;5032598;28;20029;-87
2021/09/25 12:46:38;;;;;;;15.25;7.20;;;;;;;;;;5034069;28;20025;-86
2021/09/25 12:49:15;;;;;;;16.73;7.68;;;;;;;;;;5029929;28;20388;-85
2021/09/25 12:51:59;;;;;;;18.70;7.68;;;;;;;;;;5036213;28;20052;-85
2021/09/25 12:54:31;;;;;;;22.30;8.05;;;;;;;;;;5033192;28;20033;-85
2021/09/25 12:57:06;;;;;;;17.98;8.38;;;;;;;;;;5015489;28;20361;-86
2021/09/25 12:59:36;;;;;;;16.83;7.80;;;;;;;;;;5017220;28;20049;-86
2021/09/25 13:02:04;;;;;;;19.33;7.47;;;;;;;;;;5032524;28;20160;-86
2021/09/25 13:04:32;;;;;;;17.25;7.75;;;;;;;;;;5035569;28;20128;-86
2021/09/25 13:06:58;;;;;;;15.02;7.75;;;;;;;;;;5032645;28;20124;-86
2021/09/25 13:09:25;;;;;;;13.07;7.20;;;;;;;;;;5015377;28;20465;-86
2021/09/25 13:12:08;;;;;;;14.32;8.55;;;;;;;;;;5034532;28;20033;-86
2021/09/25 13:14:33;;;;;;;15.48;7.70;;;;;;;;;;5031190;28;20025;-86
2021/09/25 13:17:00;;;;;;;14.32;7.53;;;;;;;;;;5035163;28;20033;-86
2021/09/25 13:19:25;;;;;;;13.68;7.43;;;;;;;;;;5015424;28;20101;-86
2021/09/25 13:21:51;;;;;;;13.00;7.78;;;;;;;;;;5032339;28;21907;-87
2021/09/25 13:24:17;;;;;;;17.17;7.95;;;;;;;;;;5014144;28;20037;-87
2021/09/25 13:26:43;;;;;;;16.50;8.13;;;;;;;;;;5015212;28;20042;-86
2021/09/25 13:29:09;;;;;;;14.45;7.35;;;;;;;;;;5035105;28;20392;-87
2021/09/25 13:31:34;;;;;;;13.30;7.28;;;;;;;;;;5016566;28;20095;-88
2021/09/25 13:33:59;;;;;;;12.85;7.00;;;;;;;;;;5035531;28;20459;-87
2021/09/25 13:36:25;;;;;;;18.77;7.40;;;;;;;;;;5032263;28;20026;-88
2021/09/25 13:38:51;;;;;;;15.15;7.40;;;;;;;;;;5034724;28;20021;-86
2021/09/25 13:41:17;;;;;;;15.68;8.02;;;;;;;;;;5014863;28;20039;-86
2021/09/25 13:43:44;;;;;;;14.43;7.07;;;;;;;;;;5016350;28;20032;-86
2021/09/25 13:46:09;;;;;;;18.90;7.57;;;;;;;;;;5031343;28;20049;-86
2021/09/25 13:48:35;;;;;;;14.68;8.05;;;;;;;;;;5034357;28;20032;-87
2021/09/25 13:51:01;;;;;;;15.60;7.18;;;;;;;;;;5031378;28;20052;-86
2021/09/25 13:53:26;;;;;;;20.77;7.50;;;;;;;;;;5042113;28;20108;-84
2021/09/25 13:55:52;;;;;;;16.88;8.27;;;;;;;;;;5037087;28;20121;-84
2021/09/25 13:58:18;;;;;;;18.23;7.38;;;;;;;;;;5014815;28;20032;-84
2021/09/25 14:00:43;;;;;;;15.88;7.60;;;;;;;;;;5017035;28;20021;-85
2021/09/25 14:03:09;;;;;;;16.92;7.60;;;;;;;;;;5032216;28;20040;-85
2021/09/25 14:05:34;;;;;;;13.52;7.32;;;;;;;;;;5017727;28;20032;-85
2021/09/25 14:07:59;;;;;;;14.15;7.07;;;;;;;;;;5030539;28;20039;-86
2021/09/25 14:10:25;;;;;;;17.75;7.10;;;;;;;;;;5031590;28;20112;-85
2021/09/25 14:12:50;;;;;;;16.00;7.15;;;;;;;;;;5015858;28;20033;-85
2021/09/25 14:15:16;;;;;;;16.05;6.85;;;;;;;;;;5035352;28;20017;-86
2021/09/25 14:17:41;;;;;;;15.35;7.22;;;;;;;;;;5017272;28;20021;-85
2021/09/25 14:20:07;;;;;;;12.70;6.95;;;;;;;;;;5031922;28;20032;-85
2021/09/25 14:22:33;;;;;;;9.68;5.68;;;;;;;;;;5042166;28;20029;-85
2021/09/25 14:25:00;;;;;;;12.30;5.78;;;;;;;;;;5051721;28;20029;-85
2021/09/25 14:27:26;;;;;;;15.48;6.32;;;;;;;;;;5046550;28;20083;-86
2021/09/25 14:29:51;;;;;;;17.42;6.45;;;;;;;;;;5033537;28;20033;-85
2021/09/25 14:32:17;;;;;;;12.23;6.70;;;;;;;;;;5028171;28;20400;-85